createdAt,value
2023-03-15T00:02:00.792Z,100122.09
2023-03-15T00:07:02.345Z,100124.66
2023-03-15T00:12:04.185Z,100148.63
2023-03-15T00:17:05.842Z,100155.13
2023-03-15T00:22:07.909Z,100159.88
2023-03-15T00:27:09.720Z,100172.56
2023-03-15T00:32:11.506Z,100178.97
2023-03-15T00:37:17.021Z,100198.56
2023-03-15T00:42:18.603Z,100198.63
2023-03-15T00:47:20.439Z,100214.47
2023-03-15T00:52:22.431Z,100220.19
2023-03-15T00:57:24.629Z,100218.69
2023-03-15T01:02:26.302Z,100215.47
2023-03-15T01:07:28.049Z,100228.06
2023-03-15T01:12:32.635Z,100224.00
2023-03-15T01:17:34.770Z,100217.91
2023-03-15T01:22:36.941Z,100223.28
2023-03-15T01:27:38.547Z,100221.94
2023-03-15T01:32:40.700Z,100215.34
2023-03-15T01:37:42.351Z,100220.56
2023-03-15T01:43:02.430Z,100221.50
2023-03-15T01:48:04.656Z,100232.59
2023-03-15T01:53:06.724Z,100239.81
2023-03-15T01:58:10.479Z,100254.25
2023-03-15T02:03:35.011Z,100255.13
2023-03-15T02:08:43.617Z,100262.31
2023-03-15T02:13:48.466Z,100263.88
2023-03-15T02:18:50.409Z,100278.31
2023-03-15T02:24:05.933Z,100286.72
2023-03-15T02:29:07.966Z,100294.81
2023-03-15T02:34:09.899Z,100297.66
2023-03-15T02:39:20.988Z,100310.09
2023-03-15T02:44:29.225Z,100310.72
2023-03-15T02:49:37.451Z,100319.97
2023-03-15T02:54:43.307Z,100322.97
2023-03-15T02:59:44.945Z,100339.75
2023-03-15T03:04:47.824Z,100345.44
2023-03-15T03:09:49.727Z,100350.16
2023-03-15T03:14:52.767Z,100350.16
2023-03-15T03:20:13.623Z,100347.44
2023-03-15T03:25:19.670Z,100358.72
2023-03-15T03:30:22.887Z,100366.78
2023-03-15T03:35:26.656Z,100378.19
2023-03-15T03:40:29.676Z,100382.03
2023-03-15T03:45:31.254Z,100386.03
2023-03-15T03:50:34.559Z,100391.72
2023-03-15T03:55:37.981Z,100391.66
2023-03-15T04:00:40.100Z,100395.78
2023-03-15T04:05:42.715Z,100392.03
2023-03-15T04:10:49.253Z,100399.56
2023-03-15T04:15:51.718Z,100421.22
2023-03-15T04:20:54.766Z,100410.78
2023-03-15T04:25:58.166Z,100413.78
2023-03-15T04:31:29.096Z,100407.00
2023-03-15T04:36:49.341Z,100404.63
2023-03-15T04:42:05.946Z,100408.78
2023-03-15T04:47:26.492Z,100413.44
2023-03-15T04:52:45.276Z,100411.06
2023-03-15T04:58:00.342Z,100412.38
2023-03-15T05:03:30.117Z,100408.16
2023-03-15T05:08:40.779Z,100405.59
2023-03-15T05:14:03.075Z,100409.41
2023-03-15T05:19:13.229Z,100412.28
2023-03-15T05:24:37.998Z,100413.25
2023-03-15T05:29:55.475Z,100425.00
2023-03-15T05:35:33.783Z,100430.53
2023-03-15T05:41:06.763Z,100432.06
2023-03-15T05:46:22.839Z,100422.00
2023-03-15T05:51:44.317Z,100432.47
2023-03-15T05:57:06.554Z,100422.41
2023-03-15T06:02:29.075Z,100427.47
2023-03-15T06:07:47.804Z,100435.94
2023-03-15T06:12:52.215Z,100438.03
2023-03-15T06:17:53.941Z,100435.44
2023-03-15T06:22:55.559Z,100453.91
2023-03-15T06:28:11.320Z,100453.16
2023-03-15T06:33:17.997Z,100463.06
2023-03-15T06:38:22.050Z,100477.13
2023-03-15T06:43:23.818Z,100490.50
2023-03-15T06:48:26.385Z,100487.63
2023-03-15T06:53:28.190Z,100491.16
2023-03-15T06:58:29.928Z,100493.56
2023-03-15T07:03:31.444Z,100505.06
2023-03-15T07:08:33.004Z,100510.31
2023-03-15T07:13:34.575Z,100511.06
2023-03-15T07:18:36.085Z,100508.44
2023-03-15T07:23:39.758Z,100504.78
2023-03-15T07:28:41.329Z,100511.59
2023-03-15T07:33:43.067Z,100502.78
2023-03-15T07:38:44.575Z,100507.97
2023-03-15T07:43:46.193Z,100506.50
2023-03-15T07:48:52.848Z,100524.91
2023-03-15T07:53:54.402Z,100547.19
2023-03-15T07:58:55.953Z,100578.78
2023-03-15T08:03:57.624Z,100616.72
2023-03-15T08:09:06.629Z,100654.59
2023-03-15T08:14:10.926Z,100666.94
2023-03-15T08:19:12.469Z,100699.91
2023-03-15T08:24:16.520Z,100696.22
2023-03-15T08:29:18.079Z,100697.44
2023-03-15T08:34:19.715Z,100697.84
2023-03-15T08:39:24.181Z,100658.84
2023-03-15T08:44:25.771Z,100616.41
2023-03-15T08:49:27.255Z,100609.25
2023-03-15T08:54:28.851Z,100606.13
2023-03-15T08:59:32.824Z,100616.53
2023-03-15T09:04:34.375Z,100606.53
2023-03-15T09:09:40.944Z,100612.47
2023-03-15T09:14:47.706Z,100593.59
2023-03-15T09:19:49.228Z,100611.91
2023-03-15T09:24:52.618Z,100594.06
2023-03-15T09:29:54.196Z,100584.47
2023-03-15T09:34:55.732Z,100542.06
2023-03-15T09:39:57.273Z,100523.16
2023-03-15T09:45:19.750Z,100543.75
2023-03-15T09:50:33.934Z,100474.66
2023-03-15T09:55:42.472Z,100496.09
2023-03-15T10:00:47.743Z,100452.75
2023-03-15T10:05:58.612Z,100343.16
2023-03-15T10:11:34.186Z,100369.06
2023-03-15T10:16:51.053Z,100408.94
2023-03-15T10:22:21.114Z,100366.00
2023-03-15T10:27:32.066Z,100357.91
2023-03-15T10:32:40.825Z,100388.00
2023-03-15T10:37:43.722Z,100389.88
2023-03-15T10:42:47.113Z,100363.09
2023-03-15T10:47:57.600Z,100321.66
2023-03-15T10:53:08.822Z,100425.56
2023-03-15T10:58:27.667Z,100416.19
2023-03-15T11:03:31.201Z,100383.19
2023-03-15T11:08:41.437Z,100309.56
2023-03-15T11:13:58.494Z,100332.44
2023-03-15T11:19:02.050Z,100229.88
2023-03-15T11:24:23.107Z,100339.31
2023-03-15T11:29:37.074Z,100324.84
2023-03-15T11:34:44.487Z,100271.56
2023-03-15T11:40:12.098Z,100267.63
2023-03-15T11:45:37.104Z,100323.63
2023-03-15T11:50:59.328Z,100473.59
2023-03-15T11:56:24.185Z,100571.13
2023-03-15T12:01:27.001Z,100611.97
2023-03-15T12:06:39.166Z,100602.81
2023-03-15T12:11:42.582Z,100589.28
2023-03-15T12:16:46.436Z,100584.47
2023-03-15T12:21:54.415Z,100574.34
2023-03-15T12:27:03.200Z,100584.28
2023-03-15T12:32:14.118Z,100574.78
2023-03-15T12:37:22.756Z,100566.00
2023-03-15T12:42:33.102Z,100540.34
2023-03-15T12:47:44.613Z,100524.28
2023-03-15T12:52:47.401Z,100478.78
2023-03-15T12:57:53.972Z,100510.34
2023-03-15T13:03:16.769Z,100506.38
2023-03-15T13:08:23.851Z,100510.34
2023-03-15T13:13:49.790Z,100490.94
2023-03-15T13:19:14.164Z,100484.63
2023-03-15T13:24:42.654Z,100446.50
2023-03-15T13:29:44.393Z,100420.81
2023-03-15T13:34:47.166Z,100409.19
2023-03-15T13:40:03.986Z,100385.94
2023-03-15T13:45:17.199Z,100386.78
2023-03-15T13:50:20.921Z,100295.00
2023-03-15T13:55:25.179Z,100390.78
2023-03-15T14:00:27.154Z,100480.56
2023-03-15T14:05:32.916Z,100546.16
2023-03-15T14:10:39.050Z,100571.91
2023-03-15T14:15:46.649Z,100604.47
2023-03-15T14:21:00.743Z,100593.63
2023-03-15T14:26:05.801Z,100581.59
2023-03-15T14:31:07.599Z,100576.50
2023-03-15T14:36:23.833Z,100576.25
2023-03-15T14:41:28.201Z,100572.84
2023-03-15T14:46:32.945Z,100578.81
2023-03-15T14:51:34.509Z,100570.16
2023-03-15T14:56:37.143Z,100573.44
2023-03-15T15:01:40.534Z,100568.44
2023-03-15T15:06:51.495Z,100565.09
2023-03-15T15:11:54.044Z,100581.66
2023-03-15T15:16:55.918Z,100589.94
2023-03-15T15:21:57.798Z,100587.56
2023-03-15T15:26:59.505Z,100592.06
2023-03-15T15:32:01.103Z,100590.00
2023-03-15T15:37:02.702Z,100576.69
2023-03-15T15:42:04.502Z,100583.78
2023-03-15T15:47:06.419Z,100585.75
2023-03-15T15:52:12.095Z,100590.25
2023-03-15T15:57:14.385Z,100602.31
2023-03-15T16:02:22.160Z,100601.22
2023-03-15T16:07:24.801Z,100610.00
2023-03-15T16:12:27.164Z,100614.34
2023-03-15T16:17:29.458Z,100616.22
2023-03-15T16:22:31.798Z,100625.66
2023-03-15T16:27:33.381Z,100626.03
2023-03-15T16:32:43.815Z,100627.81
2023-03-15T16:37:46.584Z,100622.69
2023-03-15T16:42:49.498Z,100617.47
2023-03-15T16:47:51.615Z,100621.97
2023-03-15T16:52:56.765Z,100628.72
2023-03-15T16:58:00.695Z,100630.00
2023-03-15T17:03:04.423Z,100640.53
2023-03-15T17:08:06.111Z,100646.72
2023-03-15T17:13:09.129Z,100657.00
2023-03-15T17:18:18.197Z,100653.84
2023-03-15T17:23:21.324Z,100649.34
2023-03-15T17:28:23.246Z,100654.00
2023-03-15T17:33:26.099Z,100650.66
2023-03-15T17:38:32.863Z,100650.66
2023-03-15T17:43:36.681Z,100650.41
2023-03-15T17:48:38.531Z,100665.97
2023-03-15T17:53:40.048Z,100663.81
2023-03-15T17:58:46.667Z,100671.22
2023-03-15T18:03:49.173Z,100678.56
2023-03-15T18:08:51.062Z,100680.16
2023-03-15T18:13:52.884Z,100682.38
2023-03-15T18:18:54.455Z,100686.47
2023-03-15T18:23:56.199Z,100688.88
2023-03-15T18:28:57.724Z,100691.97
2023-03-15T18:34:00.688Z,100695.00
2023-03-15T18:39:02.423Z,100695.19
2023-03-15T18:44:04.041Z,100696.72
2023-03-15T18:49:05.894Z,100698.53
2023-03-15T18:54:07.438Z,100701.56
2023-03-15T18:59:08.987Z,100697.66
2023-03-15T19:04:11.178Z,100706.25
2023-03-15T19:09:12.942Z,100697.63
2023-03-15T19:14:14.482Z,100704.22
2023-03-15T19:19:16.598Z,100710.44
2023-03-15T19:24:18.181Z,100712.63
2023-03-15T19:29:22.086Z,100724.38
2023-03-15T19:34:24.758Z,100728.53
2023-03-15T19:39:26.282Z,100727.94
2023-03-15T19:44:28.293Z,100725.56
2023-03-15T19:49:29.828Z,100723.31
2023-03-15T19:54:33.999Z,100735.31
2023-03-15T19:59:39.987Z,100736.72
2023-03-15T20:04:41.681Z,100733.03
2023-03-15T20:09:43.364Z,100737.91
2023-03-15T20:14:44.941Z,100744.22
2023-03-15T20:19:47.127Z,100736.28
2023-03-15T20:24:50.019Z,100747.72
2023-03-15T20:29:51.936Z,100746.97
2023-03-15T20:34:57.589Z,100744.41
2023-03-15T20:39:59.139Z,100743.88
2023-03-15T20:45:00.811Z,100742.69
2023-03-15T20:50:03.125Z,100744.28
2023-03-15T20:55:06.105Z,100747.75
2023-03-15T21:00:18.843Z,100754.53
2023-03-15T21:05:20.465Z,100753.84
2023-03-15T21:10:22.237Z,100760.84
2023-03-15T21:15:24.218Z,100760.22
2023-03-15T21:20:25.933Z,100752.75
2023-03-15T21:25:27.573Z,100760.28
2023-03-15T21:30:29.254Z,100756.03
2023-03-15T21:35:30.813Z,100759.19
2023-03-15T21:40:32.468Z,100764.03
2023-03-15T21:45:34.066Z,100768.31
2023-03-15T21:50:36.538Z,100764.94
2023-03-15T21:55:38.182Z,100768.50
2023-03-15T22:00:39.909Z,100769.63
2023-03-15T22:05:41.839Z,100771.06
2023-03-15T22:10:43.404Z,100765.19
2023-03-15T22:15:44.997Z,100763.63
2023-03-15T22:20:51.036Z,100759.16
2023-03-15T22:25:55.957Z,100768.22
2023-03-15T22:30:57.512Z,100778.28
2023-03-15T22:35:59.379Z,100768.53
2023-03-15T22:41:03.287Z,100762.81
2023-03-15T22:46:05.126Z,100763.94
2023-03-15T22:51:09.733Z,100758.84
2023-03-15T22:56:11.386Z,100751.91
2023-03-15T23:01:13.012Z,100742.44
2023-03-15T23:06:15.200Z,100738.91
2023-03-15T23:11:16.782Z,100735.09
2023-03-15T23:16:19.521Z,100728.50
2023-03-15T23:21:21.230Z,100732.63
2023-03-15T23:26:25.333Z,100729.50
2023-03-15T23:31:26.914Z,100720.47
2023-03-15T23:36:28.505Z,100719.63
2023-03-15T23:41:30.150Z,100718.75
2023-03-15T23:46:36.126Z,100714.78
2023-03-15T23:51:38.774Z,100709.72
2023-03-15T23:56:40.445Z,100700.81
